CheckWX is a tool to help pilots better visualize weather data.  It is not intended as a substitute for an official pre-flight weather briefing.

14:24:52 UTC

KLAR METAR
Laramie Regional Airport
Laramie, Wyoming, USA
Current

2 hours ago

KLAR 161253Z AUTO 00000KT 10SM CLR 14/07 A3020 RMK AO2 SLP112 T01440067
Observed
Jul-16 @ 12:53 UTC
Visibility
10 SM
Flight Rules
VFR
Cloud Levels
  • Clear skies
Temperature
14°C / 57°F
Dewpoint
C / 45°F
Humidity
63%
Altimeter
30.2" Hg
Pressure
1022.72 hPa
Previous

3 hours ago

KLAR 161153Z AUTO 18008KT 10SM CLR 09/06 A3019 RMK AO2 SLP120 60000 T00940056 10167 20083 55002
Observed
Jul-16 @ 11:53 UTC
Wind
  • 180° at 8 KTS
Visibility
10 SM
Flight Rules
VFR
Cloud Levels
  • Clear skies
Temperature
C / 48°F
Dewpoint
C / 43°F
Humidity
82%
Altimeter
30.19" Hg
Pressure
1022.32 hPa
Previous

4 hours ago

KLAR 161053Z AUTO 18009KT 10SM CLR 11/07 A3018 RMK AO2 SLP111 T01060067
Observed
Jul-16 @ 10:53 UTC
Wind
  • 180° at 9 KTS
Visibility
10 SM
Flight Rules
VFR
Cloud Levels
  • Clear skies
Temperature
11°C / 52°F
Dewpoint
C / 45°F
Humidity
77%
Altimeter
30.18" Hg
Pressure
1022.02 hPa